Time;durP1;ratioP1;P1;durP2;ratioP2;P2;SDS_P1;SDS_P2;PMS_P1;PMS_P2;Temp;Humidity;BMP_temperature;BMP_pressure;BME280_temperature;BME280_humidity;BME280_pressure;Samples;Min_cycle;Max_cycle;Signal;HPM_P1;HPM_P2
2021/09/16 00:00:11;;;;;;;12.63;9.38;;;;;;;16.38;100.00;96019.31;1023578;29;20495;-51
2021/09/16 00:00:42;;;;;;;21.45;10.02;;;;;;;16.35;100.00;96016.97;1023527;29;20445;-51
2021/09/16 00:01:13;;;;;;;14.65;9.88;;;;;;;16.36;100.00;96009.88;1027598;28;20117;-51
2021/09/16 00:01:43;;;;;;;16.15;9.80;;;;;;;16.37;100.00;96016.81;1028561;28;20022;-51
2021/09/16 00:02:14;;;;;;;18.65;10.82;;;;;;;16.36;100.00;96015.97;1027684;28;20057;-51
2021/09/16 00:02:45;;;;;;;13.63;9.55;;;;;;;16.35;100.00;96018.75;1031450;28;20048;-49
2021/09/16 00:03:15;;;;;;;19.92;9.60;;;;;;;16.32;100.00;96014.59;1031364;28;20113;-51
2021/09/16 00:03:46;;;;;;;13.35;9.30;;;;;;;16.32;100.00;96020.72;1027382;28;20106;-51
2021/09/16 00:04:17;;;;;;;13.35;8.65;;;;;;;16.27;100.00;96017.69;1027456;28;20050;-51
2021/09/16 00:04:48;;;;;;;14.10;10.10;;;;;;;16.29;100.00;96017.50;1027541;28;20023;-52
2021/09/16 00:05:19;;;;;;;13.95;9.95;;;;;;;16.29;100.00;96021.00;1027858;28;20015;-52
2021/09/16 00:05:49;;;;;;;13.15;10.30;;;;;;;16.30;100.00;96021.84;1032083;28;20022;-51
2021/09/16 00:06:20;;;;;;;11.98;9.15;;;;;;;16.35;100.00;96022.25;1035956;28;20052;-52
2021/09/16 00:06:51;;;;;;;16.08;9.88;;;;;;;16.35;100.00;96016.97;1031727;28;20021;-51
2021/09/16 00:07:21;;;;;;;14.15;10.00;;;;;;;16.30;100.00;96024.47;1039689;28;20021;-52
2021/09/16 00:07:52;;;;;;;12.15;9.35;;;;;;;16.26;100.00;96023.09;1035585;28;20567;-50
2021/09/16 00:08:23;;;;;;;12.40;9.48;;;;;;;16.21;100.00;96004.19;1031492;28;20057;-51
2021/09/16 00:08:54;;;;;;;13.70;9.88;;;;;;;16.31;100.00;96018.19;1035964;28;20384;-51
2021/09/16 00:09:24;;;;;;;15.32;9.98;;;;;;;16.31;100.00;96020.84;1035633;28;20109;-51
2021/09/16 00:09:55;;;;;;;14.18;9.55;;;;;;;16.34;100.00;96025.88;1028007;28;20019;-51
2021/09/16 00:10:26;;;;;;;16.20;9.60;;;;;;;16.34;100.00;96023.22;1035523;28;20169;-52
2021/09/16 00:10:56;;;;;;;13.57;8.90;;;;;;;16.31;100.00;96018.19;1031456;28;20109;-52
2021/09/16 00:11:27;;;;;;;12.27;9.60;;;;;;;16.31;100.00;96028.78;1031641;28;20142;-51
2021/09/16 00:11:59;;;;;;;17.27;9.45;;;;;;;16.30;100.00;96033.25;1031998;28;20080;-52
2021/09/16 00:12:30;;;;;;;14.15;9.45;;;;;;;16.29;100.00;96021.00;1032093;28;20563;-52
2021/09/16 00:13:00;;;;;;;17.52;9.65;;;;;;;16.27;100.00;96020.31;1035337;28;20050;-51
2021/09/16 00:13:31;;;;;;;13.05;9.77;;;;;;;16.27;100.00;96027.41;1031617;28;20072;-52
2021/09/16 00:14:02;;;;;;;14.60;9.23;;;;;;;16.27;100.00;96030.91;1027377;28;20397;-53
2021/09/16 00:14:33;;;;;;;14.18;9.30;;;;;;;16.30;100.00;96027.13;1031616;28;20456;-51
2021/09/16 00:15:05;;;;;;;13.38;9.23;;;;;;;16.29;100.00;96028.94;1035584;28;20018;-51
2021/09/16 00:15:35;;;;;;;13.07;9.40;;;;;;;16.28;100.00;96035.19;1036095;28;20053;-51
2021/09/16 00:16:06;;;;;;;12.43;9.23;;;;;;;16.24;100.00;96025.88;1036033;28;20415;-51
2021/09/16 00:16:37;;;;;;;16.15;9.75;;;;;;;16.21;100.00;96030.63;1035609;28;20113;-52
2021/09/16 00:17:08;;;;;;;13.57;9.30;;;;;;;16.23;100.00;96032.13;1031694;28;20024;-50
2021/09/16 00:17:39;;;;;;;15.80;8.98;;;;;;;16.23;100.00;96031.31;1027703;28;20041;-52
2021/09/16 00:18:10;;;;;;;17.55;10.18;;;;;;;16.22;100.00;96025.19;1023689;28;20027;-51
2021/09/16 00:18:40;;;;;;;13.95;9.63;;;;;;;16.24;100.00;96044.38;1023659;28;20110;-52
2021/09/16 00:19:11;;;;;;;13.70;10.32;;;;;;;16.23;100.00;96036.59;1023723;28;20114;-52
2021/09/16 00:19:43;;;;;;;17.15;10.27;;;;;;;16.22;100.00;96035.78;1023942;28;20122;-51
2021/09/16 00:20:13;;;;;;;14.30;9.55;;;;;;;16.20;100.00;96034.22;1031474;28;20396;-51
2021/09/16 00:20:44;;;;;;;13.70;9.40;;;;;;;16.22;100.00;96041.06;1031877;28;20038;-51
2021/09/16 00:21:15;;;;;;;14.93;10.80;;;;;;;16.25;100.00;96038.09;1035958;28;20018;-51
2021/09/16 00:21:46;;;;;;;14.40;10.27;;;;;;;16.24;100.00;96040.91;1031750;28;20026;-50
2021/09/16 00:22:17;;;;;;;14.38;9.95;;;;;;;16.24;100.00;96041.75;1035557;28;20034;-51
2021/09/16 00:22:48;;;;;;;13.63;9.38;;;;;;;16.23;100.00;96042.72;1039456;28;20442;-50
2021/09/16 00:23:18;;;;;;;13.45;9.57;;;;;;;16.24;100.00;96040.91;1040253;28;20156;-50
2021/09/16 00:23:49;;;;;;;15.07;10.20;;;;;;;16.25;100.00;96039.94;1043599;28;20037;-52
2021/09/16 00:24:20;;;;;;;15.15;10.75;;;;;;;16.24;100.00;96040.91;1035863;28;20022;-52
2021/09/16 00:24:51;;;;;;;13.23;9.07;;;;;;;16.24;100.00;96040.91;1027383;28;20173;-51
2021/09/16 00:25:22;;;;;;;17.67;11.35;;;;;;;16.24;100.00;96033.00;1031431;28;20506;-51
2021/09/16 00:25:52;;;;;;;18.40;9.60;;;;;;;16.23;100.00;96036.59;1035623;28;20110;-52
2021/09/16 00:26:23;;;;;;;14.23;9.40;;;;;;;16.27;100.00;96037.97;1035456;28;20112;-51
2021/09/16 00:26:54;;;;;;;14.30;9.50;;;;;;;16.27;100.00;96030.03;1031549;28;20022;-51
2021/09/16 00:27:25;;;;;;;14.55;8.98;;;;;;;16.29;100.00;96038.66;1027529;28;20046;-52
2021/09/16 00:27:55;;;;;;;14.90;9.75;;;;;;;16.23;100.00;96026.84;1028032;28;20058;-51
2021/09/16 00:28:26;;;;;;;14.20;9.55;;;;;;;16.21;100.00;96035.91;1035386;28;20025;-52
2021/09/16 00:28:57;;;;;;;16.17;9.85;;;;;;;16.24;100.00;96031.16;1031672;28;20034;-51
2021/09/16 00:29:27;;;;;;;11.65;9.10;;;;;;;16.27;100.00;96028.25;1031472;28;20106;-51
2021/09/16 00:29:58;;;;;;;15.50;9.20;;;;;;;16.30;100.00;96027.13;1031933;28;20208;-49
2021/09/16 00:30:29;;;;;;;13.68;10.15;;;;;;;16.29;100.00;96028.94;1039934;28;20022;-52
2021/09/16 00:30:59;;;;;;;14.32;10.82;;;;;;;16.27;100.00;96024.75;1035576;28;20061;-52
2021/09/16 00:31:30;;;;;;;15.18;10.18;;;;;;;16.26;100.00;96028.41;1035614;28;20029;-51
2021/09/16 00:32:01;;;;;;;14.77;10.02;;;;;;;16.28;100.00;96024.63;1031629;28;20006;-51
2021/09/16 00:32:32;;;;;;;14.80;9.90;;;;;;;16.30;100.00;96021.84;1032066;28;20022;-50
2021/09/16 00:33:03;;;;;;;15.63;9.85;;;;;;;16.25;100.00;96019.59;1039702;28;20497;-52
2021/09/16 00:33:33;;;;;;;13.10;9.38;;;;;;;16.24;100.00;96023.25;1039826;28;20511;-52
2021/09/16 00:34:04;;;;;;;14.20;10.63;;;;;;;16.26;100.00;96015.16;1043888;28;20088;-51
2021/09/16 00:34:35;;;;;;;17.05;9.88;;;;;;;16.24;100.00;96023.25;1039657;28;20037;-52
2021/09/16 00:35:07;;;;;;;12.73;9.50;;;;;;;16.24;100.00;96017.13;1039813;28;20022;-51
2021/09/16 00:35:38;;;;;;;15.73;9.73;;;;;;;16.23;100.00;96015.44;1039709;28;20079;-50
2021/09/16 00:36:08;;;;;;;12.60;9.32;;;;;;;16.23;100.00;96023.38;1035990;28;20128;-51
2021/09/16 00:36:39;;;;;;;14.68;9.27;;;;;;;16.21;100.00;96014.75;1035552;28;20419;-52
2021/09/16 00:37:10;;;;;;;13.63;9.38;;;;;;;16.22;100.00;96017.25;1031419;28;20089;-51
2021/09/16 00:37:41;;;;;;;13.68;9.40;;;;;;;16.21;100.00;96017.41;1031739;28;20109;-52
2021/09/16 00:38:12;;;;;;;15.10;9.60;;;;;;;16.17;100.00;96019.50;1035840;28;20092;-51
2021/09/16 00:38:42;;;;;;;13.30;8.98;;;;;;;16.16;100.00;96014.34;1040297;28;20033;-51
2021/09/16 00:39:14;;;;;;;13.68;9.70;;;;;;;16.16;100.00;96016.97;1039545;28;20390;-51
2021/09/16 00:39:45;;;;;;;14.23;9.40;;;;;;;16.13;100.00;96015.47;1031517;28;20022;-52
2021/09/16 00:40:16;;;;;;;13.75;9.80;;;;;;;16.15;100.00;96021.44;1027587;28;20015;-52
2021/09/16 00:40:46;;;;;;;17.35;10.38;;;;;;;16.13;100.00;96021.56;1027829;28;20165;-51
2021/09/16 00:41:17;;;;;;;15.95;9.80;;;;;;;16.12;100.00;96024.34;1031813;28;20464;-51
2021/09/16 00:41:48;;;;;;;16.45;9.07;;;;;;;16.11;100.00;96028.00;1035504;28;20396;-50
2021/09/16 00:42:19;;;;;;;13.80;9.23;;;;;;;16.16;100.00;96028.41;1031403;28;20022;-52
2021/09/16 00:42:49;;;;;;;12.02;8.65;;;;;;;16.22;100.00;96024.38;1027352;28;20019;-52
2021/09/16 00:43:20;;;;;;;13.25;9.18;;;;;;;16.25;100.00;96024.06;1031463;28;20046;-51
2021/09/16 00:43:51;;;;;;;16.95;9.70;;;;;;;16.23;100.00;96016.28;1027578;28;20109;-51
2021/09/16 00:44:22;;;;;;;16.67;9.68;;;;;;;16.21;100.00;96015.59;1027875;28;20058;-51
2021/09/16 00:44:52;;;;;;;12.60;9.35;;;;;;;16.17;100.00;96027.41;1027677;28;20408;-51
2021/09/16 00:45:23;;;;;;;15.82;9.50;;;;;;;16.17;100.00;96018.66;1031532;28;20034;-51
2021/09/16 00:46:02;;;;;;;15.77;8.98;;;;;;;16.17;100.00;96021.31;1031493;28;20050;-52
2021/09/16 00:46:32;;;;;;;11.57;9.48;;;;;;;16.12;100.00;96019.91;1023587;29;20106;-51
2021/09/16 00:47:03;;;;;;;13.75;9.50;;;;;;;16.07;100.00;96019.50;1023406;29;20046;-51
2021/09/16 00:47:34;;;;;;;15.00;10.25;;;;;;;16.09;100.00;96019.38;1027395;28;20031;-51
2021/09/16 00:48:05;;;;;;;13.88;10.18;;;;;;;16.10;100.00;96021.88;1023679;29;20272;-51
2021/09/16 00:48:36;;;;;;;11.90;9.73;;;;;;;16.07;100.00;96022.16;1027363;28;20029;-51
2021/09/16 00:49:07;;;;;;;15.93;10.43;;;;;;;16.06;100.00;96025.75;1027459;28;20029;-51
2021/09/16 00:49:38;;;;;;;15.48;10.15;;;;;;;16.07;100.00;96018.66;1023472;29;20069;-52
2021/09/16 00:50:09;;;;;;;13.77;9.75;;;;;;;16.07;100.00;96021.31;1027622;28;20027;-52
2021/09/16 00:50:40;;;;;;;18.33;10.38;;;;;;;16.03;100.00;96027.84;1035447;28;20022;-51
2021/09/16 00:51:10;;;;;;;14.30;10.35;;;;;;;16.02;100.00;96032.28;1031498;28;20050;-52
2021/09/16 00:51:41;;;;;;;14.57;9.80;;;;;;;16.04;100.00;96032.97;1031330;28;20085;-51
2021/09/16 00:52:12;;;;;;;13.77;10.52;;;;;;;16.03;100.00;96031.34;1031480;28;20109;-52
2021/09/16 00:52:43;;;;;;;15.57;10.60;;;;;;;16.04;100.00;96026.88;1027427;28;20066;-51
2021/09/16 00:53:15;;;;;;;16.15;10.48;;;;;;;16.03;100.00;96033.13;1027735;28;20130;-51
2021/09/16 00:53:46;;;;;;;15.55;10.07;;;;;;;16.02;100.00;96034.94;1027939;28;20030;-52
2021/09/16 00:54:17;;;;;;;13.93;10.45;;;;;;;16.05;100.00;96039.94;1031851;28;20102;-51
2021/09/16 00:54:48;;;;;;;15.88;10.32;;;;;;;16.06;100.00;96036.31;1031448;28;20019;-52
2021/09/16 00:55:20;;;;;;;17.75;9.93;;;;;;;16.06;100.00;96044.25;1031474;28;20030;-51
2021/09/16 00:55:51;;;;;;;14.40;9.93;;;;;;;16.03;100.00;96039.25;1031834;28;20400;-51
2021/09/16 00:56:21;;;;;;;16.13;9.93;;;;;;;16.03;100.00;96041.03;1028049;28;20049;-51
2021/09/16 00:56:52;;;;;;;14.82;9.63;;;;;;;15.99;100.00;96034.38;1031839;28;20125;-50
2021/09/16 00:57:23;;;;;;;12.43;9.32;;;;;;;15.99;100.00;96037.03;1031552;28;20563;-52
2021/09/16 00:57:54;;;;;;;13.93;10.20;;;;;;;15.97;100.00;96041.63;1031971;28;20496;-50
2021/09/16 00:58:27;;;;;;;20.23;10.05;;;;;;;15.98;100.00;96038.00;1035951;28;20026;-51
2021/09/16 00:58:58;;;;;;;11.27;9.75;;;;;;;16.02;100.00;96039.41;1040398;28;20025;-52
2021/09/16 00:59:29;;;;;;;18.63;9.95;;;;;;;16.00;100.00;96033.41;1036911;28;20438;-51
2021/09/16 01:00:00;;;;;;;14.77;10.40;;;;;;;15.97;100.00;96037.16;1032587;28;20507;-52
2021/09/16 01:00:31;;;;;;;14.20;9.43;;;;;;;15.95;100.00;96039.09;1032358;28;20022;-51
2021/09/16 01:01:02;;;;;;;14.10;10.23;;;;;;;15.95;100.00;96036.47;1032619;28;20022;-52
2021/09/16 01:01:32;;;;;;;14.38;10.82;;;;;;;15.96;100.00;96035.50;1028314;28;20053;-51
2021/09/16 01:02:04;;;;;;;13.77;9.82;;;;;;;15.97;100.00;96039.78;1032090;28;20029;-50
2021/09/16 01:02:34;;;;;;;15.77;9.52;;;;;;;15.93;100.00;96033.13;1036362;28;20122;-50
2021/09/16 01:03:05;;;;;;;14.68;10.10;;;;;;;15.94;100.00;96030.34;1036481;28;20504;-51
2021/09/16 01:03:36;;;;;;;13.77;10.38;;;;;;;15.94;100.00;96032.16;1040338;28;20104;-51
2021/09/16 01:04:07;;;;;;;20.85;12.02;;;;;;;15.92;100.00;96034.94;1032594;28;20024;-51
2021/09/16 01:04:38;;;;;;;15.95;10.85;;;;;;;15.91;100.00;96035.06;1036568;28;20046;-51
2021/09/16 01:05:08;;;;;;;17.20;11.40;;;;;;;15.89;100.00;96035.22;1040594;28;20021;-52
2021/09/16 01:05:39;;;;;;;19.20;11.43;;;;;;;15.88;100.00;96038.00;1032623;28;20026;-50
2021/09/16 01:06:11;;;;;;;15.98;10.15;;;;;;;15.88;100.00;96044.13;1036183;28;20108;-50
2021/09/16 01:06:42;;;;;;;16.45;11.57;;;;;;;15.88;100.00;96041.47;1032151;28;20088;-51
2021/09/16 01:07:14;;;;;;;15.57;10.48;;;;;;;15.87;100.00;96037.16;1028299;28;20029;-52
2021/09/16 01:07:45;;;;;;;15.77;10.88;;;;;;;15.85;100.00;96043.56;1025213;28;20106;-51
2021/09/16 01:08:15;;;;;;;17.45;10.45;;;;;;;15.81;100.00;96039.53;1028495;28;20416;-51
2021/09/16 01:08:47;;;;;;;17.77;11.15;;;;;;;15.81;100.00;96044.81;1023990;29;20066;-51
2021/09/16 01:09:18;;;;;;;18.38;11.43;;;;;;;15.82;100.00;96041.19;1024191;29;20027;-51
2021/09/16 01:09:49;;;;;;;19.30;11.38;;;;;;;15.81;100.00;96047.47;1025039;28;20023;-51
2021/09/16 01:10:21;;;;;;;19.55;11.80;;;;;;;15.82;100.00;96051.75;1028626;28;20392;-51
2021/09/16 01:10:51;;;;;;;20.25;10.63;;;;;;;15.79;100.00;96049.41;1032145;28;20170;-51
2021/09/16 01:11:23;;;;;;;15.88;10.88;;;;;;;15.83;100.00;96053.44;1024189;29;20027;-51
2021/09/16 01:11:54;;;;;;;14.32;11.13;;;;;;;15.83;100.00;96053.44;1024548;28;20424;-51
2021/09/16 01:12:26;;;;;;;15.20;10.77;;;;;;;15.83;100.00;96053.44;1028581;28;20057;-52
2021/09/16 01:12:57;;;;;;;13.32;10.13;;;;;;;15.84;100.00;96053.31;1028963;28;20030;-52
2021/09/16 01:13:28;;;;;;;16.08;10.43;;;;;;;15.82;100.00;96057.03;1028908;28;20159;-51
2021/09/16 01:13:59;;;;;;;15.20;10.68;;;;;;;15.84;100.00;96063.03;1032218;28;20014;-52
2021/09/16 01:14:30;;;;;;;20.00;11.20;;;;;;;15.87;100.00;96054.81;1028383;28;20106;-51
2021/09/16 01:15:01;;;;;;;12.57;9.25;;;;;;;15.88;100.00;96059.16;1032017;28;20483;-51
2021/09/16 01:15:32;;;;;;;14.07;9.77;;;;;;;15.86;100.00;96061.94;1024061;29;20015;-52
2021/09/16 01:16:03;;;;;;;16.42;10.55;;;;;;;15.83;100.00;96051.63;1028144;28;20022;-52
2021/09/16 01:16:34;;;;;;;13.20;9.77;;;;;;;15.89;100.00;96059.00;1028043;28;20095;-51
2021/09/16 01:17:04;;;;;;;17.73;10.43;;;;;;;15.90;100.00;96057.19;1032213;28;20492;-51
2021/09/16 01:17:35;;;;;;;14.95;9.85;;;;;;;15.87;100.00;96058.28;1027983;28;20023;-52
2021/09/16 01:18:06;;;;;;;11.77;9.40;;;;;;;15.89;100.00;96050.25;1032021;28;20093;-51
2021/09/16 01:18:37;;;;;;;12.88;9.77;;;;;;;15.85;100.00;96054.97;1032199;28;20106;-51
2021/09/16 01:19:08;;;;;;;14.60;9.98;;;;;;;15.85;100.00;96051.50;1027967;28;20106;-51
2021/09/16 01:19:38;;;;;;;15.48;10.70;;;;;;;15.83;100.00;96048.16;1024382;28;20319;-50
2021/09/16 01:20:09;;;;;;;16.63;10.02;;;;;;;15.82;100.00;96049.13;1028440;28;20623;-52
2021/09/16 01:20:40;;;;;;;15.05;10.35;;;;;;;15.83;100.00;96061.38;1032951;28;20034;-52
2021/09/16 01:21:11;;;;;;;17.17;9.90;;;;;;;15.85;100.00;96062.06;1036355;28;20105;-51
2021/09/16 01:21:42;;;;;;;14.65;10.07;;;;;;;15.86;100.00;96059.28;1036201;28;20022;-51
2021/09/16 01:22:18;;;;;;;11.77;9.90;;;;;;;15.84;100.00;96057.72;1028105;28;20481;-50
2021/09/16 01:22:48;;;;;;;13.77;10.05;;;;;;;15.85;100.00;96062.06;1024037;29;20114;-50
2021/09/16 01:23:19;;;;;;;13.75;9.63;;;;;;;15.84;100.00;96058.59;1023931;29;20059;-51
2021/09/16 01:23:50;;;;;;;15.75;9.50;;;;;;;15.87;100.00;96060.09;1024131;29;20501;-50
2021/09/16 01:24:21;;;;;;;14.85;11.13;;;;;;;15.88;100.00;96059.16;1024075;29;20023;-50
2021/09/16 01:24:52;;;;;;;17.42;10.32;;;;;;;15.94;100.00;96058.59;1024650;28;20046;-52
2021/09/16 01:25:27;;;;;;;13.60;9.70;;;;;;;15.85;100.00;96054.97;1032422;28;20104;-51
2021/09/16 01:25:58;;;;;;;16.65;9.95;;;;;;;15.87;100.00;96058.28;1037880;28;20030;-51
2021/09/16 01:26:28;;;;;;;11.10;9.90;;;;;;;15.87;100.00;96057.47;1032086;28;20022;-52
2021/09/16 01:26:59;;;;;;;14.50;9.38;;;;;;;15.86;100.00;96061.06;1027961;28;20023;-52
2021/09/16 01:27:30;;;;;;;19.98;10.50;;;;;;;15.83;100.00;96051.63;1028072;28;20114;-51
2021/09/16 01:28:01;;;;;;;15.10;9.15;;;;;;;15.88;100.00;96057.34;1028114;28;20395;-51
2021/09/16 01:28:32;;;;;;;12.50;9.35;;;;;;;15.88;100.00;96057.34;1028554;28;20026;-50
2021/09/16 01:29:03;;;;;;;12.85;9.15;;;;;;;15.90;100.00;96055.38;1028488;28;20007;-51
2021/09/16 01:29:34;;;;;;;13.40;9.18;;;;;;;15.94;100.00;96053.31;1023938;28;20026;-52
2021/09/16 01:30:05;;;;;;;15.20;8.93;;;;;;;15.99;100.00;96051.09;1032051;28;20046;-51
2021/09/16 01:30:36;;;;;;;12.93;9.07;;;;;;;15.98;100.00;96049.41;1028189;28;20503;-51
2021/09/16 01:31:07;;;;;;;12.30;8.85;;;;;;;15.98;100.00;96053.88;1032034;28;20042;-51
2021/09/16 01:31:39;;;;;;;13.73;8.32;;;;;;;15.93;100.00;96047.19;1032005;28;20114;-51
2021/09/16 01:32:11;;;;;;;11.65;8.10;;;;;;;15.92;100.00;96044.69;1036275;28;20056;-52
2021/09/16 01:32:41;;;;;;;15.20;9.00;;;;;;;15.94;100.00;96046.22;1033170;28;20022;-51
2021/09/16 01:33:12;;;;;;;11.25;7.88;;;;;;;15.91;100.00;96040.34;1028282;28;20046;-51
2021/09/16 01:33:43;;;;;;;14.30;8.52;;;;;;;15.89;100.00;96037.03;1032531;28;20014;-51
2021/09/16 01:34:15;;;;;;;12.68;8.65;;;;;;;15.86;100.00;96043.44;1032334;28;20412;-51
2021/09/16 01:34:46;;;;;;;13.90;8.80;;;;;;;15.88;100.00;96036.19;1028790;28;20093;-51
2021/09/16 01:35:17;;;;;;;12.15;8.65;;;;;;;15.82;100.00;96034.13;1028059;28;20538;-51
2021/09/16 01:35:48;;;;;;;13.65;9.60;;;;;;;15.81;100.00;96039.53;1028344;28;20015;-51
2021/09/16 01:36:18;;;;;;;13.15;9.55;;;;;;;15.84;100.00;96039.25;1028483;28;20031;-51
2021/09/16 01:36:49;;;;;;;15.52;9.45;;;;;;;15.86;100.00;96046.06;1028216;28;20046;-51
2021/09/16 01:37:20;;;;;;;13.07;9.23;;;;;;;15.84;100.00;96041.88;1028056;28;20007;-51
2021/09/16 01:37:50;;;;;;;14.63;9.15;;;;;;;15.83;100.00;96043.69;1028023;28;20070;-50
2021/09/16 01:38:21;;;;;;;15.07;10.07;;;;;;;15.81;100.00;96037.72;1028269;28;20065;-50
2021/09/16 01:38:52;;;;;;;14.50;10.07;;;;;;;15.80;100.00;96040.50;1032325;28;20062;-52
2021/09/16 01:39:24;;;;;;;13.30;10.05;;;;;;;15.78;100.00;96042.44;1028197;28;20019;-51
2021/09/16 01:39:55;;;;;;;14.20;10.05;;;;;;;15.77;100.00;96040.78;1028388;28;20018;-51
2021/09/16 01:40:26;;;;;;;13.68;10.10;;;;;;;15.77;100.00;96040.78;1023970;29;20019;-52
2021/09/16 01:40:56;;;;;;;13.00;8.95;;;;;;;15.72;100.00;96036.69;1027994;28;20022;-52
2021/09/16 01:41:27;;;;;;;15.23;9.60;;;;;;;15.70;100.00;96043.09;1032194;28;20038;-51
2021/09/16 01:41:58;;;;;;;16.88;10.07;;;;;;;15.70;100.00;96043.94;1031977;28;20117;-53
2021/09/16 01:42:29;;;;;;;13.27;9.57;;;;;;;15.70;100.00;96040.47;1028113;28;20072;-51
2021/09/16 01:42:59;;;;;;;14.77;10.48;;;;;;;15.71;100.00;96048.25;1028107;28;20519;-51
2021/09/16 01:43:30;;;;;;;12.10;9.80;;;;;;;15.68;100.00;96043.22;1032477;28;20105;-51
2021/09/16 01:44:01;;;;;;;14.15;10.32;;;;;;;15.69;100.00;96042.28;1036233;28;20049;-51
2021/09/16 01:44:33;;;;;;;15.75;10.98;;;;;;;15.67;100.00;96036.28;1032272;28;20537;-50
2021/09/16 01:45:04;;;;;;;19.20;12.23;;;;;;;15.66;100.00;96044.34;1032086;28;20014;-52
2021/09/16 01:45:35;;;;;;;16.17;11.00;;;;;;;15.65;100.00;96040.84;1024556;28;20109;-51
2021/09/16 01:46:06;;;;;;;17.10;11.90;;;;;;;15.63;100.00;96040.16;1024438;28;20532;-52
2021/09/16 01:46:37;;;;;;;15.02;11.18;;;;;;;15.62;100.00;96043.78;1028065;28;20101;-51
2021/09/16 01:47:09;;;;;;;15.57;11.02;;;;;;;15.63;100.00;96044.63;1028101;28;20484;-51
2021/09/16 01:47:41;;;;;;;17.17;11.63;;;;;;;15.65;100.00;96048.78;1028943;28;20053;-51
2021/09/16 01:48:12;;;;;;;18.13;11.18;;;;;;;15.64;100.00;96054.22;1029098;28;20044;-52
2021/09/16 01:48:42;;;;;;;13.88;10.32;;;;;;;15.65;100.00;96050.59;1028557;28;20023;-51
2021/09/16 01:49:13;;;;;;;17.52;11.43;;;;;;;15.64;100.00;96047.13;1028022;28;20065;-51
2021/09/16 01:49:44;;;;;;;13.90;10.60;;;;;;;15.68;100.00;96048.50;1028107;28;20113;-51
2021/09/16 01:50:16;;;;;;;19.00;10.95;;;;;;;15.67;100.00;96046.88;1036038;28;20420;-52
2021/09/16 01:50:48;;;;;;;17.33;10.93;;;;;;;15.65;100.00;96056.69;1032008;28;20018;-53
2021/09/16 01:51:19;;;;;;;15.43;10.90;;;;;;;15.64;100.00;96052.41;1031936;28;20165;-51
2021/09/16 01:51:50;;;;;;;16.48;11.20;;;;;;;15.60;100.00;96056.28;1027947;28;20440;-51
2021/09/16 01:52:21;;;;;;;19.05;11.18;;;;;;;15.57;100.00;96051.28;1023892;29;20043;-51
2021/09/16 01:52:51;;;;;;;15.95;11.55;;;;;;;15.58;100.00;96047.69;1027814;28;20027;-51
2021/09/16 01:53:22;;;;;;;19.35;11.32;;;;;;;15.57;100.00;96048.63;1032183;28;20130;-51
2021/09/16 01:53:53;;;;;;;16.05;10.68;;;;;;;15.57;100.00;96048.63;1031974;28;20019;-51
2021/09/16 01:54:24;;;;;;;16.60;10.80;;;;;;;15.56;100.00;96054.91;1032129;28;20022;-52
2021/09/16 01:54:54;;;;;;;17.80;11.30;;;;;;;15.55;100.00;96053.22;1032310;28;20453;-52
2021/09/16 01:55:25;;;;;;;13.95;11.27;;;;;;;15.55;100.00;96053.22;1036305;28;20034;-52
2021/09/16 01:55:56;;;;;;;18.25;11.27;;;;;;;15.55;100.00;96059.31;1036284;28;20018;-51
2021/09/16 01:56:27;;;;;;;19.58;12.40;;;;;;;15.51;100.00;96055.28;1027871;28;20053;-51
2021/09/16 01:56:58;;;;;;;19.60;11.32;;;;;;;15.52;100.00;96053.47;1032089;28;20026;-51
2021/09/16 01:57:28;;;;;;;16.40;11.20;;;;;;;15.54;100.00;96056.81;1032136;28;20022;-51
2021/09/16 01:57:59;;;;;;;14.27;10.90;;;;;;;15.52;100.00;96058.75;1032292;28;20010;-51
2021/09/16 01:58:30;;;;;;;18.50;12.05;;;;;;;15.50;100.00;96056.28;1035877;28;20018;-51
2021/09/16 01:59:01;;;;;;;18.50;11.80;;;;;;;15.52;100.00;96056.13;1036153;28;20006;-52
2021/09/16 01:59:32;;;;;;;15.57;11.15;;;;;;;15.52;100.00;96064.91;1032559;28;20056;-51
2021/09/16 02:00:04;;;;;;;15.68;10.98;;;;;;;15.54;100.00;96062.09;1032196;28;20031;-51
2021/09/16 02:00:35;;;;;;;17.48;11.38;;;;;;;15.58;100.00;96065.31;1027878;28;20011;-52
2021/09/16 02:01:05;;;;;;;16.77;11.10;;;;;;;15.55;100.00;96067.25;1031917;28;20105;-51
2021/09/16 02:01:36;;;;;;;16.95;11.95;;;;;;;15.55;100.00;96064.59;1032447;28;20080;-52
2021/09/16 02:02:07;;;;;;;17.58;11.57;;;;;;;15.59;100.00;96069.63;1036300;28;20014;-51
2021/09/16 02:02:39;;;;;;;21.27;12.13;;;;;;;15.56;100.00;96070.75;1036253;28;20435;-52
2021/09/16 02:03:09;;;;;;;18.67;12.05;;;;;;;15.55;100.00;96067.25;1044203;28;20013;-51
2021/09/16 02:03:40;;;;;;;21.70;12.43;;;;;;;15.54;100.00;96072.66;1043974;28;20108;-51
2021/09/16 02:04:11;;;;;;;15.55;11.82;;;;;;;15.54;100.00;96065.59;1036271;28;20025;-53
2021/09/16 02:04:41;;;;;;;16.65;12.00;;;;;;;15.54;100.00;96064.75;1035930;28;20038;-50
2021/09/16 02:05:12;;;;;;;20.02;11.77;;;;;;;15.54;100.00;96070.03;1036038;28;20033;-52
2021/09/16 02:05:43;;;;;;;19.10;11.90;;;;;;;15.52;100.00;96066.69;1032173;28;20022;-51
2021/09/16 02:06:14;;;;;;;17.35;11.98;;;;;;;15.55;100.00;96069.91;1032196;28;20030;-51
2021/09/16 02:06:45;;;;;;;18.98;12.02;;;;;;;15.56;100.00;96065.47;1036169;28;20018;-52
2021/09/16 02:07:16;;;;;;;14.85;11.40;;;;;;;15.56;100.00;96070.75;1036070;28;20428;-51
2021/09/16 02:07:46;;;;;;;21.83;12.05;;;;;;;15.54;100.00;96065.59;1032216;28;20444;-51
2021/09/16 02:08:17;;;;;;;15.10;11.63;;;;;;;15.56;100.00;96070.75;1028035;28;20106;-52
2021/09/16 02:08:48;;;;;;;16.55;11.95;;;;;;;15.57;100.00;96064.47;1027744;28;20105;-52
2021/09/16 02:09:19;;;;;;;17.50;11.68;;;;;;;15.58;100.00;96071.44;1031914;28;20574;-51
2021/09/16 02:09:49;;;;;;;17.92;12.05;;;;;;;15.59;100.00;96072.28;1032608;28;20065;-51
2021/09/16 02:10:20;;;;;;;18.75;11.98;;;;;;;15.60;100.00;96068.66;1036226;28;20523;-52
2021/09/16 02:10:51;;;;;;;16.83;11.80;;;;;;;15.57;100.00;96063.66;1031876;28;20496;-52
2021/09/16 02:11:22;;;;;;;21.92;13.48;;;;;;;15.59;100.00;96067.00;1028232;28;20017;-51
2021/09/16 02:11:53;;;;;;;18.48;13.10;;;;;;;15.61;100.00;96068.50;1027944;28;20110;-51
2021/09/16 02:12:23;;;;;;;18.63;12.77;;;;;;;15.59;100.00;96065.19;1035964;28;20414;-52
2021/09/16 02:12:54;;;;;;;18.10;12.43;;;;;;;15.56;100.00;96065.47;1031712;28;20093;-52
2021/09/16 02:13:26;;;;;;;18.55;13.32;;;;;;;15.53;100.00;96063.09;1031967;28;20120;-51
2021/09/16 02:13:57;;;;;;;24.52;13.73;;;;;;;15.52;100.00;96062.25;1031870;28;20018;-51
2021/09/16 02:14:28;;;;;;;17.90;13.02;;;;;;;15.54;100.00;96062.97;1032223;28;20011;-52
2021/09/16 02:14:58;;;;;;;20.40;12.73;;;;;;;15.53;100.00;96066.56;1036247;28;20566;-52
2021/09/16 02:15:29;;;;;;;18.10;12.70;;;;;;;15.54;100.00;96068.25;1040203;28;20139;-51
2021/09/16 02:16:00;;;;;;;23.77;13.48;;;;;;;15.51;100.00;96065.84;1036293;28;20084;-52
2021/09/16 02:16:31;;;;;;;20.10;13.20;;;;;;;15.50;100.00;96064.22;1040059;28;20016;-51
2021/09/16 02:17:01;;;;;;;21.90;13.50;;;;;;;15.50;100.00;96069.50;1031808;28;20483;-53
2021/09/16 02:17:32;;;;;;;19.25;13.88;;;;;;;15.52;100.00;96067.53;1024078;28;20019;-52
2021/09/16 02:18:03;;;;;;;21.98;13.43;;;;;;;15.53;100.00;96065.72;1027856;28;20422;-52
2021/09/16 02:18:33;;;;;;;21.30;13.50;;;;;;;15.53;100.00;96073.66;1028080;28;20054;-52
2021/09/16 02:19:05;;;;;;;18.00;12.90;;;;;;;15.55;100.00;96069.06;1028300;28;20103;-51
2021/09/16 02:19:35;;;;;;;18.20;13.75;;;;;;;15.55;100.00;96063.78;1032545;28;20010;-52
2021/09/16 02:20:07;;;;;;;19.90;13.30;;;;;;;15.55;100.00;96077.00;1032229;28;20037;-51
2021/09/16 02:20:38;;;;;;;19.85;13.20;;;;;;;15.57;100.00;96068.94;1028470;28;20378;-51
2021/09/16 02:21:08;;;;;;;19.23;12.70;;;;;;;15.52;100.00;96067.53;1028102;28;20057;-51